Nearby METAR Reports

 

KAVP - Avoca/Wilkes B., Pennsylvania, USA
Distance from station: N 16mi, 25km
Updated: 05/28/2020 12:54am
Clear
Clear
 Wind from varies
Wind: varies 6 mph , 9 km/h, Gust: 21 mph , 33 km/h
Temperature: 72°F , 22°C
Dew Point: 61°F , 16°C
Humidity: 69%
Barometer: 30.17 inHg , 1021.7 hPa
Clouds: Clear
Visibility: 10 miles , 16 km
2020/05/28 04:54 KAVP 280454Z VRB05G18KT 10SM CLR 22/16 A3017 RMK AO2 SLP209 T02170161 402890183
KMPO - Mt. Pocono, Pennsylvania, USA
Distance from station: E 20mi, 33km
Updated: 05/28/2020 12:53am
Overcast
Overcast
 Wind from S
Wind: S 6 mph , 9 km/h
Temperature: 64°F , 18°C
Dew Point: 61°F , 16°C
Humidity: 88%
Barometer: 30.24 inHg , 1024 hPa
Clouds: Overcast
Visibility: 10 miles , 16 km
Cloud details: Overcast 1300 ft
2020/05/28 04:53 KMPO 280453Z AUTO 17005KT 10SM OVC013 18/16 A3024 RMK AO2 SLP229 T01830161 402390133
 
KABE - Allentown, Pennsylvania, USA
Distance from station: SSE 36mi, 58km
Updated: 05/28/2020 12:51am
Haze, Overcast
Haze, Overcast
 Wind from S
Wind: S 6 mph , 9 km/h
Temperature: 72°F , 22°C
Dew Point: 63°F , 17°C
Humidity: 73%
Barometer: 30.19 inHg , 1022.4 hPa
Summary: Haze
Clouds: Overcast
Visibility: 6 miles , 10 km
Cloud details: Overcast 6000 ft
2020/05/28 04:51 KABE 280451Z 17005KT 6SM HZ OVC060 22/17 A3019 RMK AO2 SLP222 T02170172 402720150
KXLL - Allentown Queen, Pennsylvania, USA
Distance from station: SSE 41mi, 65km
Updated: 05/28/2020 12:35am
Mostly cloudy
Mostly cloudy
 Wind from S
Wind: S 5 mph , 7 km/h
Temperature: 70°F , 21°C
Dew Point: 64°F , 18°C
Humidity: 83%
Barometer: 30.21 inHg , 1023 hPa
Clouds: Mostly cloudy
Visibility: 10 miles , 16 km
Cloud details: Mostly cloudy 6000 ft
2020/05/28 04:35 KXLL 280435Z AUTO 17004KT 10SM BKN060 21/18 A3021 RMK AO2